createdAt,value
2023-03-15T00:01:46.497Z,99297.31
2023-03-15T00:04:14.196Z,99298.94
2023-03-15T00:06:41.045Z,99304.50
2023-03-15T00:09:07.734Z,99310.06
2023-03-15T00:11:34.345Z,99308.94
2023-03-15T00:14:02.515Z,99305.69
2023-03-15T00:16:29.694Z,99323.78
2023-03-15T00:18:56.732Z,99320.88
2023-03-15T00:21:23.986Z,99326.66
2023-03-15T00:23:51.060Z,99331.69
2023-03-15T00:26:17.943Z,99327.63
2023-03-15T00:28:44.754Z,99335.88
2023-03-15T00:31:25.421Z,99334.25
2023-03-15T00:33:53.912Z,99337.97
2023-03-15T00:36:25.310Z,99340.03
2023-03-15T00:38:53.835Z,99337.63
2023-03-15T00:41:22.503Z,99338.41
2023-03-15T00:43:49.733Z,99346.66
2023-03-15T00:46:17.735Z,99339.72
2023-03-15T00:48:48.212Z,99352.19
2023-03-15T00:51:21.255Z,99348.50
2023-03-15T00:53:49.412Z,99347.13
2023-03-15T00:56:21.504Z,99347.13
2023-03-15T00:58:48.545Z,99351.63
2023-03-15T01:01:24.335Z,99348.41
2023-03-15T01:03:51.671Z,99356.88
2023-03-15T01:06:23.416Z,99350.50
2023-03-15T01:08:51.587Z,99352.59
2023-03-15T01:11:22.380Z,99357.91
2023-03-15T01:13:48.912Z,99357.91
2023-03-15T01:16:15.599Z,99354.22
2023-03-15T01:18:42.901Z,99353.16
2023-03-15T01:21:10.967Z,99358.72
2023-03-15T01:23:38.246Z,99349.94
2023-03-15T01:26:07.318Z,99361.16
2023-03-15T01:28:33.935Z,99363.59
2023-03-15T01:31:00.617Z,99361.16
2023-03-15T01:33:27.827Z,99360.56
2023-03-15T01:36:06.769Z,99365.91
2023-03-15T01:38:34.677Z,99360.31
2023-03-15T01:41:01.911Z,99351.31
2023-03-15T01:43:31.889Z,99363.59
2023-03-15T01:46:13.445Z,99361.16
2023-03-15T01:49:00.659Z,99367.75
2023-03-15T01:51:42.878Z,99366.94
2023-03-15T01:54:19.202Z,99360.00
2023-03-15T01:56:52.703Z,99371.13
2023-03-15T01:59:24.476Z,99363.84
2023-03-15T02:01:54.666Z,99370.78
2023-03-15T02:04:28.750Z,99379.00
2023-03-15T02:07:01.892Z,99372.06
2023-03-15T02:09:37.881Z,99374.16
2023-03-15T02:12:05.248Z,99366.72
2023-03-15T02:14:33.397Z,99363.50
2023-03-15T02:16:59.944Z,99358.75
2023-03-15T02:19:34.040Z,99368.81
2023-03-15T02:22:30.495Z,99368.50
2023-03-15T02:25:18.263Z,99372.53
2023-03-15T02:27:45.289Z,99366.63
2023-03-15T02:30:12.126Z,99367.69
2023-03-15T02:32:39.457Z,99365.03
2023-03-15T02:35:06.416Z,99374.88
2023-03-15T02:37:32.935Z,99362.81
2023-03-15T02:39:59.486Z,99363.31
2023-03-15T02:42:26.583Z,99363.31
2023-03-15T02:44:54.616Z,99374.41
2023-03-15T02:47:27.008Z,99377.56
2023-03-15T02:49:54.109Z,99375.94
2023-03-15T02:52:22.763Z,99375.34
2023-03-15T02:54:49.633Z,99378.25
2023-03-15T02:57:18.820Z,99384.16
2023-03-15T02:59:45.684Z,99380.66
2023-03-15T03:02:13.632Z,99378.59
2023-03-15T03:04:41.603Z,99378.13
2023-03-15T03:07:08.315Z,99390.38
2023-03-15T03:09:35.081Z,99393.84
2023-03-15T03:12:01.623Z,99393.16
2023-03-15T03:14:29.067Z,99396.38
2023-03-15T03:16:55.780Z,99386.22
2023-03-15T03:19:25.713Z,99392.78
2023-03-15T03:21:53.578Z,99397.81
2023-03-15T03:24:20.985Z,99386.91
2023-03-15T03:26:47.629Z,99383.66
2023-03-15T03:29:17.931Z,99391.44
2023-03-15T03:31:45.051Z,99396.50
2023-03-15T03:34:14.609Z,99392.00
2023-03-15T03:36:43.352Z,99386.22
2023-03-15T03:39:10.721Z,99401.72
2023-03-15T03:41:37.884Z,99410.25
2023-03-15T03:44:04.623Z,99406.56
2023-03-15T03:46:31.298Z,99413.03
2023-03-15T03:48:57.895Z,99405.59
2023-03-15T03:51:24.464Z,99414.19
2023-03-15T03:53:50.991Z,99407.25
2023-03-15T03:56:17.513Z,99408.88
2023-03-15T03:58:44.083Z,99408.88
2023-03-15T04:01:11.666Z,99410.50
2023-03-15T04:03:38.226Z,99413.72
2023-03-15T04:06:05.730Z,99415.34
2023-03-15T04:08:32.347Z,99408.72
2023-03-15T04:10:59.194Z,99424.69
2023-03-15T04:13:25.895Z,99416.47
2023-03-15T04:15:57.471Z,99408.03
2023-03-15T04:18:24.939Z,99417.63
2023-03-15T04:20:54.720Z,99410.47
2023-03-15T04:23:24.738Z,99422.25
2023-03-15T04:25:52.499Z,99426.28
2023-03-15T04:28:19.677Z,99424.22
2023-03-15T04:30:48.489Z,99428.50
2023-03-15T04:33:15.129Z,99421.66
2023-03-15T04:35:42.762Z,99415.84
2023-03-15T04:38:10.168Z,99409.47
2023-03-15T04:40:36.874Z,99422.31
2023-03-15T04:43:05.209Z,99430.88
2023-03-15T04:45:31.976Z,99425.06
2023-03-15T04:47:59.135Z,99433.63
2023-03-15T04:50:26.165Z,99435.81
2023-03-15T04:52:52.761Z,99430.50
2023-03-15T04:55:19.493Z,99437.69
2023-03-15T04:57:46.026Z,99440.56
2023-03-15T05:00:13.094Z,99437.13
2023-03-15T05:02:41.663Z,99429.13
2023-03-15T05:05:09.986Z,99419.53
2023-03-15T05:07:37.746Z,99419.75
2023-03-15T05:10:06.303Z,99425.31
2023-03-15T05:12:34.016Z,99429.81
2023-03-15T05:15:00.549Z,99434.69
2023-03-15T05:17:27.092Z,99442.91
2023-03-15T05:19:53.682Z,99457.28
2023-03-15T05:22:25.449Z,99463.41
2023-03-15T05:24:53.833Z,99461.78
2023-03-15T05:27:20.886Z,99461.31
2023-03-15T05:29:47.471Z,99463.28
2023-03-15T05:32:14.114Z,99458.88
2023-03-15T05:34:40.792Z,99460.56
2023-03-15T05:37:07.475Z,99467.03
2023-03-15T05:39:34.868Z,99463.91
2023-03-15T05:42:02.079Z,99466.09
2023-03-15T05:44:28.717Z,99464.81
2023-03-15T05:46:55.246Z,99466.78
2023-03-15T05:49:21.861Z,99471.38
2023-03-15T05:51:48.405Z,99481.28
2023-03-15T05:54:15.247Z,99475.25
2023-03-15T05:56:41.804Z,99471.22
2023-03-15T05:59:08.338Z,99477.28
2023-03-15T06:01:34.942Z,99475.78
2023-03-15T06:04:01.480Z,99466.03
2023-03-15T06:06:28.104Z,99465.25
2023-03-15T06:08:55.083Z,99449.19
2023-03-15T06:11:22.012Z,99455.19
2023-03-15T06:13:48.514Z,99458.78
2023-03-15T06:16:15.089Z,99456.41
2023-03-15T06:18:41.672Z,99459.50
2023-03-15T06:21:08.281Z,99461.88
2023-03-15T06:23:34.884Z,99460.81
2023-03-15T06:26:01.431Z,99464.44
2023-03-15T06:28:27.956Z,99466.75
2023-03-15T06:30:54.568Z,99467.53
2023-03-15T06:33:21.700Z,99476.91
2023-03-15T06:35:48.298Z,99483.22
2023-03-15T06:38:15.272Z,99487.91
2023-03-15T06:40:41.839Z,99493.63
2023-03-15T06:43:08.858Z,99485.47
2023-03-15T06:45:35.475Z,99493.72
2023-03-15T06:48:02.058Z,99485.94
2023-03-15T06:50:34.382Z,99492.59
2023-03-15T06:53:11.057Z,99497.09
2023-03-15T06:55:37.610Z,99500.25
2023-03-15T06:58:04.171Z,99508.25
2023-03-15T07:00:31.171Z,99507.47
2023-03-15T07:02:57.861Z,99511.47
2023-03-15T07:05:24.716Z,99516.81
2023-03-15T07:07:51.315Z,99516.03
2023-03-15T07:10:17.976Z,99518.44
2023-03-15T07:12:44.544Z,99515.75
2023-03-15T07:15:12.103Z,99518.56
2023-03-15T07:17:38.639Z,99514.88
2023-03-15T07:20:06.121Z,99511.88
2023-03-15T07:22:35.387Z,99532.66
2023-03-15T07:25:02.042Z,99537.03
2023-03-15T07:27:29.326Z,99543.97
2023-03-15T07:29:55.835Z,99546.41
2023-03-15T07:32:22.680Z,99548.03
2023-03-15T07:34:49.259Z,99549.66
2023-03-15T07:37:17.382Z,99555.56
2023-03-15T07:39:44.024Z,99545.44
2023-03-15T07:42:10.861Z,99550.88
2023-03-15T07:44:37.388Z,99552.13
2023-03-15T07:47:04.138Z,99547.09
2023-03-15T07:49:31.711Z,99551.94
2023-03-15T07:51:58.373Z,99552.03
2023-03-15T07:54:25.872Z,99550.16
2023-03-15T07:56:53.437Z,99560.28
2023-03-15T07:59:19.924Z,99558.44
2023-03-15T08:01:46.566Z,99563.59
2023-03-15T08:04:13.114Z,99560.84
2023-03-15T08:06:39.643Z,99560.13
2023-03-15T08:09:06.905Z,99570.03
2023-03-15T08:14:05.899Z,99574.88
2023-03-15T08:16:32.497Z,99564.91
2023-03-15T08:18:59.172Z,99565.63
2023-03-15T08:21:26.853Z,99566.91
2023-03-15T08:23:53.416Z,99580.91
2023-03-15T08:26:19.998Z,99594.69
2023-03-15T08:28:46.511Z,99594.59
2023-03-15T08:31:14.071Z,99587.81
2023-03-15T08:33:41.035Z,99598.16
2023-03-15T08:36:07.922Z,99592.88
2023-03-15T08:38:34.953Z,99598.78
2023-03-15T08:41:01.601Z,99582.72
2023-03-15T08:43:28.206Z,99608.97
2023-03-15T08:46:01.019Z,99604.13
2023-03-15T08:48:28.172Z,99611.25
2023-03-15T08:50:54.774Z,99610.69
2023-03-15T08:53:21.283Z,99603.50
2023-03-15T08:55:49.553Z,99618.56
2023-03-15T08:58:16.432Z,99622.09
2023-03-15T09:00:43.140Z,99637.97
2023-03-15T09:03:09.852Z,99624.09
2023-03-15T09:05:36.510Z,99623.59
2023-03-15T09:08:03.272Z,99629.63
2023-03-15T09:10:29.824Z,99645.31
2023-03-15T09:12:56.447Z,99637.84
2023-03-15T09:15:23.074Z,99631.94
2023-03-15T09:17:51.742Z,99642.63
2023-03-15T09:20:21.895Z,99650.16
2023-03-15T09:22:53.868Z,99648.69
2023-03-15T09:25:20.858Z,99657.38
2023-03-15T09:27:47.564Z,99653.81
2023-03-15T09:30:14.841Z,99658.09
2023-03-15T09:32:41.478Z,99658.66
2023-03-15T09:35:10.228Z,99652.63
2023-03-15T09:37:36.798Z,99662.53
2023-03-15T09:40:04.730Z,99663.09
2023-03-15T09:42:53.383Z,99660.41
2023-03-15T09:45:32.322Z,99670.97
2023-03-15T09:48:32.444Z,99679.78
2023-03-15T09:51:17.638Z,99673.00
2023-03-15T09:54:05.875Z,99671.81
2023-03-15T09:56:56.557Z,99679.81
2023-03-15T09:59:32.830Z,99669.69
2023-03-15T10:02:04.167Z,99678.25
2023-03-15T10:04:40.605Z,99678.75
2023-03-15T10:07:14.518Z,99692.09
2023-03-15T10:09:41.116Z,99692.66
2023-03-15T10:12:19.069Z,99694.66
2023-03-15T10:15:16.728Z,99693.94
2023-03-15T10:17:59.071Z,99689.59
2023-03-15T10:20:34.290Z,99686.44
2023-03-15T10:23:25.597Z,99685.91
2023-03-15T10:25:54.308Z,99692.13
2023-03-15T10:28:27.690Z,99691.56
2023-03-15T10:30:57.363Z,99692.13
2023-03-15T10:33:32.086Z,99687.34
2023-03-15T10:36:10.543Z,99683.59
2023-03-15T10:38:39.064Z,99688.78
2023-03-15T10:41:06.744Z,99687.78
2023-03-15T10:43:39.969Z,99685.94
2023-03-15T10:46:08.749Z,99676.59
2023-03-15T10:48:37.888Z,99684.16
2023-03-15T10:51:17.992Z,99673.69
2023-03-15T10:54:01.815Z,99672.31
2023-03-15T10:56:32.319Z,99679.78
2023-03-15T10:59:12.063Z,99683.50
2023-03-15T11:01:39.271Z,99689.94
2023-03-15T11:04:09.011Z,99696.16
2023-03-15T11:06:48.635Z,99685.97
2023-03-15T11:09:23.821Z,99695.94
2023-03-15T11:11:59.396Z,99707.00
2023-03-15T11:14:33.428Z,99703.50
2023-03-15T11:17:01.807Z,99702.97
2023-03-15T11:19:31.858Z,99706.19
2023-03-15T11:22:01.083Z,99711.31
2023-03-15T11:24:33.069Z,99709.91
2023-03-15T11:27:01.864Z,99710.38
2023-03-15T11:29:37.109Z,99714.09
2023-03-15T11:32:13.718Z,99716.22
2023-03-15T11:35:07.711Z,99720.53
2023-03-15T11:37:46.206Z,99721.88
2023-03-15T11:40:17.624Z,99723.78
2023-03-15T11:42:54.982Z,99716.28
2023-03-15T11:45:34.325Z,99726.06
2023-03-15T11:48:10.432Z,99728.81
2023-03-15T11:50:39.229Z,99720.28
2023-03-15T11:53:08.237Z,99722.44
2023-03-15T11:55:34.880Z,99731.31
2023-03-15T11:58:42.464Z,99717.63
2023-03-15T12:01:11.651Z,99729.81
2023-03-15T12:03:45.222Z,99730.34
2023-03-15T12:06:17.652Z,99735.47
2023-03-15T12:08:53.197Z,99726.34
2023-03-15T12:11:19.902Z,99723.94
2023-03-15T12:14:01.756Z,99721.50
2023-03-15T12:16:31.356Z,99727.97
2023-03-15T12:18:59.769Z,99719.63
2023-03-15T12:21:34.326Z,99712.34
2023-03-15T12:24:05.295Z,99715.56
2023-03-15T12:26:58.824Z,99714.78
2023-03-15T12:29:28.335Z,99712.59
2023-03-15T12:32:03.823Z,99705.88
2023-03-15T12:34:44.586Z,99710.69
2023-03-15T12:37:38.984Z,99712.84
2023-03-15T12:40:22.389Z,99705.28
2023-03-15T12:42:48.930Z,99700.44
2023-03-15T12:45:15.464Z,99704.16
2023-03-15T12:47:44.957Z,99696.09
2023-03-15T12:50:36.557Z,99691.50
2023-03-15T12:53:13.451Z,99699.84
2023-03-15T12:55:40.702Z,99699.81
2023-03-15T12:58:11.736Z,99691.72
2023-03-15T13:00:42.004Z,99690.38
2023-03-15T13:03:16.515Z,99686.31
2023-03-15T13:06:04.878Z,99677.13
2023-03-15T13:08:35.860Z,99679.19
2023-03-15T13:11:27.525Z,99678.63
2023-03-15T13:14:22.070Z,99670.03
2023-03-15T13:17:02.072Z,99670.03
2023-03-15T13:19:43.113Z,99673.25
2023-03-15T13:22:22.185Z,99667.84
2023-03-15T13:25:04.660Z,99662.47
2023-03-15T13:27:38.112Z,99671.69
2023-03-15T13:30:42.277Z,99676.03
2023-03-15T13:33:08.766Z,99663.13
2023-03-15T13:36:03.740Z,99674.47
2023-03-15T13:38:48.751Z,99659.91
2023-03-15T13:41:27.441Z,99659.25
2023-03-15T13:43:56.708Z,99662.56
2023-03-15T13:46:26.774Z,99663.34
2023-03-15T13:48:55.105Z,99660.13
2023-03-15T13:51:28.490Z,99668.38
2023-03-15T13:54:02.123Z,99666.28
2023-03-15T13:56:43.554Z,99654.97
2023-03-15T13:59:15.882Z,99651.69
2023-03-15T14:01:43.019Z,99648.69
2023-03-15T14:04:17.898Z,99646.28
2023-03-15T14:06:48.177Z,99643.94
2023-03-15T14:09:24.019Z,99641.81
2023-03-15T14:12:02.481Z,99642.66
2023-03-15T14:14:31.290Z,99636.84
2023-03-15T14:17:05.669Z,99632.44
2023-03-15T14:19:34.656Z,99635.59
2023-03-15T14:22:04.976Z,99636.81
2023-03-15T14:24:40.809Z,99635.56
2023-03-15T14:27:28.421Z,99631.59
2023-03-15T14:29:58.571Z,99639.16
2023-03-15T14:32:28.029Z,99639.44
2023-03-15T14:35:24.176Z,99641.00
2023-03-15T14:38:15.395Z,99651.88
2023-03-15T14:40:42.347Z,99651.56
2023-03-15T14:43:09.980Z,99651.31
2023-03-15T14:45:38.988Z,99655.34
2023-03-15T14:48:08.297Z,99657.63
2023-03-15T14:50:38.778Z,99670.56
2023-03-15T14:53:07.418Z,99670.34
2023-03-15T14:55:36.688Z,99671.91
2023-03-15T14:58:05.279Z,99671.53
2023-03-15T15:00:32.913Z,99676.47
2023-03-15T15:02:59.479Z,99682.59
2023-03-15T15:05:31.914Z,99669.03
2023-03-15T15:08:09.424Z,99675.16
2023-03-15T15:10:36.879Z,99673.78
2023-03-15T15:13:06.726Z,99670.75
2023-03-15T15:15:44.008Z,99665.03
2023-03-15T15:18:20.489Z,99670.94
2023-03-15T15:20:47.405Z,99679.09
2023-03-15T15:23:39.594Z,99671.56
2023-03-15T15:26:19.774Z,99667.00
2023-03-15T15:28:46.671Z,99655.47
2023-03-15T15:31:19.080Z,99655.44
2023-03-15T15:33:45.736Z,99647.06
2023-03-15T15:36:14.746Z,99645.31
2023-03-15T15:38:41.872Z,99647.13
2023-03-15T15:41:14.979Z,99637.94
2023-03-15T15:43:43.722Z,99644.06
2023-03-15T15:46:12.479Z,99638.59
2023-03-15T15:48:40.540Z,99646.31
2023-03-15T15:51:28.405Z,99643.22
2023-03-15T15:53:58.159Z,99647.53
2023-03-15T15:56:32.023Z,99650.94
2023-03-15T15:58:59.631Z,99642.00
2023-03-15T16:01:26.491Z,99648.63
2023-03-15T16:03:53.163Z,99653.75
2023-03-15T16:06:21.365Z,99664.03
2023-03-15T16:08:50.778Z,99655.50
2023-03-15T16:11:18.439Z,99650.19
2023-03-15T16:13:45.987Z,99652.97
2023-03-15T16:16:15.468Z,99653.09
2023-03-15T16:18:43.281Z,99657.75
2023-03-15T16:21:28.412Z,99658.34
2023-03-15T16:23:59.368Z,99661.28
2023-03-15T16:26:25.998Z,99657.88
2023-03-15T16:28:53.073Z,99667.06
2023-03-15T16:31:22.184Z,99667.44
2023-03-15T16:33:49.885Z,99668.16
2023-03-15T16:36:22.225Z,99664.66
2023-03-15T16:38:49.020Z,99666.72
2023-03-15T16:41:16.618Z,99666.59
2023-03-15T16:43:43.193Z,99662.91
2023-03-15T16:46:15.793Z,99665.72
2023-03-15T16:48:43.134Z,99661.47
2023-03-15T16:51:13.505Z,99659.59
2023-03-15T16:53:44.566Z,99663.72
2023-03-15T16:56:13.529Z,99659.50
2023-03-15T16:58:40.724Z,99659.25
2023-03-15T17:01:10.381Z,99662.50
2023-03-15T17:03:37.083Z,99662.34
2023-03-15T17:06:03.734Z,99660.53
2023-03-15T17:08:30.375Z,99660.28
2023-03-15T17:10:56.965Z,99666.81
2023-03-15T17:13:27.555Z,99665.22
2023-03-15T17:15:54.209Z,99668.75
2023-03-15T17:18:26.896Z,99667.47
2023-03-15T17:20:53.434Z,99671.53
2023-03-15T17:23:21.388Z,99663.72
2023-03-15T17:25:48.884Z,99679.91
2023-03-15T17:28:15.636Z,99681.03
2023-03-15T17:30:42.588Z,99679.44
2023-03-15T17:33:09.490Z,99678.38
2023-03-15T17:35:40.267Z,99682.69
2023-03-15T17:38:15.554Z,99675.72
2023-03-15T17:40:42.474Z,99679.78
2023-03-15T17:43:12.843Z,99685.16
2023-03-15T17:45:39.444Z,99687.31
2023-03-15T17:48:06.223Z,99697.28
2023-03-15T17:50:33.867Z,99699.44
2023-03-15T17:53:03.261Z,99708.59
2023-03-15T17:55:34.842Z,99715.56
2023-03-15T17:58:03.096Z,99720.41
2023-03-15T18:00:32.598Z,99721.50
2023-03-15T18:03:00.598Z,99726.31
2023-03-15T18:05:28.480Z,99724.16
2023-03-15T18:07:58.966Z,99725.75
2023-03-15T18:10:31.555Z,99719.81
2023-03-15T18:12:58.104Z,99725.41
2023-03-15T18:15:24.725Z,99729.97
2023-03-15T18:17:51.383Z,99736.88
2023-03-15T18:20:18.919Z,99735.78
2023-03-15T18:22:45.511Z,99730.34
2023-03-15T18:25:26.596Z,99732.19
2023-03-15T18:27:53.528Z,99731.88
2023-03-15T18:30:25.815Z,99728.06
2023-03-15T18:32:56.793Z,99740.09
2023-03-15T18:35:32.133Z,99733.84
2023-03-15T18:37:58.960Z,99723.88
2023-03-15T18:40:29.390Z,99737.28
2023-03-15T18:42:57.968Z,99744.47
2023-03-15T18:45:30.838Z,99733.69
2023-03-15T18:47:59.829Z,99745.44
2023-03-15T18:50:27.447Z,99746.44
2023-03-15T18:52:54.764Z,99748.53
2023-03-15T18:55:24.083Z,99750.13
2023-03-15T18:57:52.702Z,99733.72
2023-03-15T19:00:29.539Z,99746.28
2023-03-15T19:02:59.207Z,99740.63
2023-03-15T19:05:27.496Z,99740.31
2023-03-15T19:07:54.260Z,99745.13
2023-03-15T19:10:22.328Z,99744.56
2023-03-15T19:12:49.604Z,99746.41
2023-03-15T19:15:17.711Z,99757.91
2023-03-15T19:17:46.352Z,99752.78
2023-03-15T19:20:15.146Z,99759.44
2023-03-15T19:22:42.042Z,99756.22
2023-03-15T19:25:11.541Z,99751.34
2023-03-15T19:27:38.338Z,99746.50
2023-03-15T19:30:07.982Z,99752.69
2023-03-15T19:32:35.973Z,99751.56
2023-03-15T19:35:02.622Z,99749.69
2023-03-15T19:37:29.328Z,99747.00
2023-03-15T19:39:55.872Z,99746.19
2023-03-15T19:42:22.429Z,99745.41
2023-03-15T19:44:48.978Z,99744.34
2023-03-15T19:47:15.588Z,99745.13
2023-03-15T19:49:42.142Z,99750.50
2023-03-15T19:52:09.572Z,99740.31
2023-03-15T19:54:36.135Z,99744.38
2023-03-15T19:57:02.746Z,99750.84
2023-03-15T19:59:29.453Z,99754.06
2023-03-15T20:01:56.087Z,99747.09
2023-03-15T20:04:22.808Z,99745.50
2023-03-15T20:06:49.396Z,99748.44
2023-03-15T20:09:15.991Z,99740.63
2023-03-15T20:11:42.531Z,99753.47
2023-03-15T20:14:09.047Z,99746.50
2023-03-15T20:16:35.572Z,99752.38
2023-03-15T20:19:02.137Z,99759.03
2023-03-15T20:21:29.803Z,99760.66
2023-03-15T20:23:56.340Z,99753.94
2023-03-15T20:26:25.082Z,99760.38
2023-03-15T20:28:51.746Z,99754.44
2023-03-15T20:31:19.257Z,99759.22
2023-03-15T20:33:49.025Z,99757.31
2023-03-15T20:36:16.410Z,99747.91
2023-03-15T20:38:43.265Z,99756.69
2023-03-15T20:41:09.969Z,99752.66
2023-03-15T20:43:36.577Z,99758.53
2023-03-15T20:46:04.353Z,99754.69
2023-03-15T20:48:33.613Z,99758.94
2023-03-15T20:51:00.318Z,99759.72
2023-03-15T20:53:26.868Z,99765.25
2023-03-15T20:55:53.419Z,99762.50
2023-03-15T20:58:20.000Z,99764.50
2023-03-15T21:00:46.674Z,99755.03
2023-03-15T21:03:14.881Z,99755.75
2023-03-15T21:05:43.175Z,99763.38
2023-03-15T21:08:10.007Z,99757.94
2023-03-15T21:10:37.504Z,99750.41
2023-03-15T21:13:09.917Z,99745.22
2023-03-15T21:15:45.755Z,99760.16
2023-03-15T21:18:14.824Z,99752.06
2023-03-15T21:20:41.743Z,99749.31
2023-03-15T21:23:08.411Z,99758.91
2023-03-15T21:25:35.594Z,99750.53
2023-03-15T21:28:02.178Z,99766.03
2023-03-15T21:30:28.848Z,99765.69
2023-03-15T21:32:55.634Z,99764.56
2023-03-15T21:35:22.363Z,99776.00
2023-03-15T21:37:48.921Z,99770.34
2023-03-15T21:40:15.806Z,99773.50
2023-03-15T21:42:47.793Z,99770.81
2023-03-15T21:45:14.735Z,99770.81
2023-03-15T21:47:41.661Z,99768.72
2023-03-15T21:50:09.066Z,99760.59
2023-03-15T21:52:35.772Z,99763.25
2023-03-15T21:55:02.491Z,99761.66
2023-03-15T21:57:29.101Z,99758.97
2023-03-15T21:59:55.689Z,99760.84
2023-03-15T22:02:22.341Z,99759.81
2023-03-15T22:04:48.964Z,99758.97
2023-03-15T22:07:15.740Z,99745.59
2023-03-15T22:09:43.374Z,99751.44
2023-03-15T22:12:10.518Z,99748.19
2023-03-15T22:14:37.233Z,99752.75
2023-03-15T22:17:04.954Z,99749.53
2023-03-15T22:19:32.104Z,99744.63
2023-03-15T22:21:58.806Z,99744.31
2023-03-15T22:24:25.552Z,99751.44
2023-03-15T22:26:53.128Z,99750.53
2023-03-15T22:29:20.135Z,99752.06
2023-03-15T22:31:46.802Z,99755.00
2023-03-15T22:34:13.373Z,99759.53
2023-03-15T22:36:39.926Z,99753.13
2023-03-15T22:39:07.660Z,99755.81
2023-03-15T22:41:34.593Z,99752.06
2023-03-15T22:44:01.520Z,99749.97
2023-03-15T22:46:28.461Z,99751.09
2023-03-15T22:48:55.127Z,99749.81
2023-03-15T22:51:21.907Z,99739.97
2023-03-15T22:53:48.456Z,99753.31
2023-03-15T22:56:15.406Z,99750.06
2023-03-15T22:58:42.162Z,99750.66
2023-03-15T23:01:09.750Z,99748.53
2023-03-15T23:03:36.612Z,99742.38
2023-03-15T23:06:04.234Z,99739.97
2023-03-15T23:08:30.971Z,99748.69
2023-03-15T23:10:58.573Z,99752.56
2023-03-15T23:13:25.379Z,99754.03
2023-03-15T23:15:51.924Z,99758.69
2023-03-15T23:18:18.448Z,99763.94
2023-03-15T23:20:45.121Z,99760.13
2023-03-15T23:23:11.694Z,99739.97
2023-03-15T23:25:39.702Z,99747.06
2023-03-15T23:28:07.468Z,99756.59
2023-03-15T23:30:36.088Z,99746.63
2023-03-15T23:33:03.834Z,99747.38
2023-03-15T23:35:31.957Z,99751.88
2023-03-15T23:37:58.708Z,99750.50
2023-03-15T23:40:26.193Z,99739.22
2023-03-15T23:42:59.202Z,99743.56
2023-03-15T23:45:27.753Z,99750.75
2023-03-15T23:47:54.323Z,99748.06
2023-03-15T23:50:22.175Z,99742.72
2023-03-15T23:52:48.696Z,99742.50
2023-03-15T23:55:15.274Z,99727.06
2023-03-15T23:57:41.869Z,99721.72
